Terminal Aerodrome Forecast
Issued by NWS

Home | Current Version | Previous Version | Text Only | Print | Product List | Glossary On
Versions: 1 2 3 4 5 6 7 8 9 10 11 12 13 14 15 16 17 18
000
FTUS45 KABQ 180800 AAB
TAFGUP
TAF AMD
KGUP 180800Z 1808/1906 VRB04KT P6SM SCT007 BKN050
      TEMPO 1808/1812 2SM BR BKN015
     FM181200 VRB04KT 4SM BR BKN015
      TEMPO 1812/1815 3/4SM BR OVC004
     FM181600 23004KT P6SM SCT025 BKN040
     FM182000 25008KT P6SM VCSH BKN040
     FM190100 VRB03KT P6SM SKC=

USA.gov is the U.S. government's official web portal to all federal, state and local government web resources and services.